Time;durP1;ratioP1;P1;durP2;ratioP2;P2;SDS_P1;SDS_P2;PMS_P1;PMS_P2;Temp;Humidity;BMP_temperature;BMP_pressure;BME280_temperature;BME280_humidity;BME280_pressure;Samples;Min_cycle;Max_cycle;Signal;HPM_P1;HPM_P2
2021/07/01 00:00:56;;;;;;;1.43;0.63;;;15.50;92.50;;;;;;5133624;27;20437;-69
2021/07/01 00:03:23;;;;;;;3.10;0.67;;;15.40;92.10;;;;;;5117702;28;20442;-69
2021/07/01 00:05:49;;;;;;;2.17;1.07;;;15.40;92.50;;;;;;5112920;28;20954;-68
2021/07/01 00:08:19;;;;;;;3.30;0.70;;;15.40;92.70;;;;;;5126797;28;20495;-69
2021/07/01 00:10:47;;;;;;;1.63;0.70;;;15.40;92.90;;;;;;5114480;28;20439;-68
2021/07/01 00:13:16;;;;;;;1.50;0.73;;;15.30;93.00;;;;;;5125553;28;20437;-68
2021/07/01 00:15:43;;;;;;;2.23;0.90;;;15.40;93.00;;;;;;5133294;28;20433;-68
2021/07/01 00:18:11;;;;;;;1.53;0.70;;;15.30;93.00;;;;;;5131561;28;20793;-68
2021/07/01 00:20:38;;;;;;;2.83;1.00;;;15.30;93.00;;;;;;5133341;28;20557;-68
2021/07/01 00:23:07;;;;;;;1.80;0.70;;;15.30;92.80;;;;;;5114778;28;20442;-68
2021/07/01 00:25:58;;;;;;;1.70;1.10;;;15.30;92.80;;;;;;5112794;28;20434;-71
2021/07/01 00:28:55;;;;;;;1.47;0.57;;;15.20;93.10;;;;;;5133235;28;20480;-70
2021/07/01 00:31:23;;;;;;;1.50;0.77;;;15.30;93.50;;;;;;5130316;28;20597;-70
2021/07/01 00:33:50;;;;;;;1.70;0.90;;;15.20;92.80;;;;;;5120891;28;20520;-70
2021/07/01 00:36:24;;;;;;;1.70;0.80;;;15.20;92.80;;;;;;5131538;28;20437;-70
2021/07/01 00:38:52;;;;;;;2.00;0.80;;;15.20;92.80;;;;;;5112510;28;20436;-69
2021/07/01 00:41:38;;;;;;;2.80;1.10;;;15.20;92.70;;;;;;5113534;28;20916;-69
2021/07/01 00:44:19;;;;;;;2.50;0.93;;;15.10;92.90;;;;;;5133729;28;20876;-69
2021/07/01 00:47:05;;;;;;;1.67;0.87;;;15.10;93.20;;;;;;5119897;28;20434;-70
2021/07/01 00:49:38;;;;;;;1.70;0.90;;;15.10;93.30;;;;;;5112443;28;20537;-69
2021/07/01 00:52:29;;;;;;;1.87;0.90;;;15.10;93.30;;;;;;5127860;28;20480;-70
2021/07/01 00:55:00;;;;;;;1.90;0.80;;;15.10;93.20;;;;;;5134549;27;20437;-70
2021/07/01 00:57:29;;;;;;;1.70;0.90;;;15.10;93.30;;;;;;5122323;27;20973;-71
2021/07/01 01:00:29;;;;;;;1.70;0.83;;;15.10;93.50;;;;;;5136846;27;20433;-70
2021/07/01 01:02:57;;;;;;;3.30;1.00;;;15.00;93.60;;;;;;5096167;28;20434;-70
2021/07/01 01:05:26;;;;;;;1.60;0.70;;;15.10;93.40;;;;;;5096233;28;20463;-71
2021/07/01 01:07:54;;;;;;;1.80;0.90;;;15.10;93.40;;;;;;5136314;27;20429;-70
2021/07/01 01:10:22;;;;;;;3.07;0.80;;;15.10;93.20;;;;;;5126360;27;20487;-70
2021/07/01 01:12:52;;;;;;;1.80;0.93;;;15.10;93.20;;;;;;5116188;28;20828;-71
2021/07/01 01:15:36;;;;;;;1.60;0.80;;;15.10;93.20;;;;;;5124668;27;20491;-70
2021/07/01 01:18:22;;;;;;;2.97;1.13;;;15.10;93.70;;;;;;5136653;27;20429;-69
2021/07/01 01:21:13;;;;;;;1.70;0.80;;;15.00;92.90;;;;;;5123805;27;20537;-70
2021/07/01 01:24:00;;;;;;;1.80;0.87;;;15.00;92.80;;;;;;5095572;28;20516;-69
2021/07/01 01:26:41;;;;;;;1.80;0.83;;;14.90;92.70;;;;;;5130891;27;20954;-70
2021/07/01 01:29:09;;;;;;;1.50;0.60;;;14.90;92.10;;;;;;5136787;27;20425;-69
2021/07/01 01:31:43;;;;;;;1.77;0.90;;;14.90;92.00;;;;;;5117986;27;20458;-69
2021/07/01 01:34:15;;;;;;;1.67;0.70;;;14.80;91.80;;;;;;5108366;27;20440;-69
2021/07/01 01:37:04;;;;;;;1.50;0.80;;;14.80;91.60;;;;;;5127694;27;20448;-68
2021/07/01 01:39:47;;;;;;;1.40;0.67;;;14.70;91.50;;;;;;5118982;27;20452;-68
2021/07/01 01:42:15;;;;;;;1.60;0.70;;;14.70;91.20;;;;;;5132852;27;20438;-68
2021/07/01 01:44:52;;;;;;;1.73;0.90;;;14.70;91.30;;;;;;5115611;28;20442;-69
2021/07/01 01:47:23;;;;;;;1.70;0.83;;;14.70;91.20;;;;;;5135442;27;20436;-69
2021/07/01 01:49:59;;;;;;;1.70;0.80;;;14.70;90.90;;;;;;5136542;27;20434;-69
2021/07/01 01:52:35;;;;;;;1.97;1.07;;;14.60;90.60;;;;;;5133450;27;20476;-70
2021/07/01 01:55:12;;;;;;;1.80;0.80;;;14.60;90.80;;;;;;5136266;27;20428;-69
2021/07/01 01:57:45;;;;;;;1.87;1.10;;;14.60;91.00;;;;;;5095349;28;20443;-69
2021/07/01 02:00:14;;;;;;;1.60;0.77;;;14.60;90.70;;;;;;5117140;27;20491;-70
2021/07/01 02:02:42;;;;;;;1.90;1.20;;;14.60;91.20;;;;;;5135942;27;20482;-69
2021/07/01 02:05:27;;;;;;;1.67;0.90;;;14.60;91.20;;;;;;5125911;27;20442;-69
2021/07/01 02:07:56;;;;;;;1.80;0.70;;;14.60;90.90;;;;;;5122872;27;20465;-69
2021/07/01 02:10:33;;;;;;;2.33;0.80;;;14.60;90.80;;;;;;5136342;27;20509;-69
2021/07/01 02:13:02;;;;;;;1.90;1.10;;;14.60;90.90;;;;;;5133538;27;20982;-69
2021/07/01 02:15:35;;;;;;;3.23;1.20;;;14.60;91.10;;;;;;5135671;27;20484;-69
2021/07/01 02:18:10;;;;;;;1.90;1.00;;;14.60;90.80;;;;;;5127312;27;20795;-69
2021/07/01 02:20:56;;;;;;;1.83;0.93;;;14.60;90.80;;;;;;5127299;27;20437;-70
2021/07/01 02:23:27;;;;;;;1.80;0.90;;;14.60;90.80;;;;;;5124826;27;20442;-69
2021/07/01 02:25:56;;;;;;;3.20;0.97;;;14.60;91.10;;;;;;5135734;27;20441;-69
2021/07/01 02:28:28;;;;;;;1.80;0.80;;;14.70;91.20;;;;;;5125855;27;20488;-69
2021/07/01 02:30:59;;;;;;;1.63;1.10;;;14.60;90.50;;;;;;5131549;27;20931;-69
2021/07/01 02:33:26;;;;;;;1.80;1.00;;;14.60;90.90;;;;;;5135190;27;20469;-70
2021/07/01 02:36:13;;;;;;;1.73;0.90;;;14.60;90.70;;;;;;5135230;27;20437;-69
2021/07/01 02:39:07;;;;;;;1.40;0.67;;;14.60;90.20;;;;;;5118562;27;20423;-69
2021/07/01 02:41:39;;;;;;;1.80;0.90;;;14.60;90.50;;;;;;5124943;27;20811;-69
2021/07/01 02:44:15;;;;;;;2.10;0.90;;;14.40;90.40;;;;;;5134989;27;20787;-69
2021/07/01 02:46:52;;;;;;;1.87;0.80;;;14.40;90.50;;;;;;5123639;27;20513;-69
2021/07/01 02:49:44;;;;;;;1.47;0.77;;;14.40;90.60;;;;;;5114808;28;21060;-70
2021/07/01 02:52:33;;;;;;;1.63;0.80;;;14.40;90.70;;;;;;5129299;27;20982;-69
2021/07/01 02:55:30;;;;;;;1.70;0.90;;;14.40;89.50;;;;;;5134999;27;20440;-70
2021/07/01 02:58:42;;;;;;;1.97;0.77;;;14.40;90.10;;;;;;5012302;28;20446;-69
2021/07/01 03:04:02;;;;;;;2.37;1.03;;;14.40;89.20;;;;;;5119561;27;20456;-69
2021/07/01 03:06:41;;;;;;;1.70;1.00;;;14.40;89.90;;;;;;5114626;28;20449;-69
2021/07/01 03:09:30;;;;;;;3.80;0.90;;;14.40;89.70;;;;;;5129975;27;20461;-70
2021/07/01 03:12:06;;;;;;;2.07;1.10;;;14.40;88.70;;;;;;5134208;27;20480;-68
2021/07/01 03:14:41;;;;;;;2.00;1.10;;;14.30;88.20;;;;;;5131205;27;20541;-70
2021/07/01 03:17:16;;;;;;;6.90;1.30;;;14.40;88.20;;;;;;5114543;28;20441;-69
2021/07/01 03:19:48;;;;;;;2.83;1.10;;;14.30;87.30;;;;;;5133564;27;20447;-69
2021/07/01 03:22:24;;;;;;;2.43;1.00;;;14.40;87.50;;;;;;5133069;27;20469;-70
2021/07/01 03:25:04;;;;;;;1.80;0.90;;;14.40;88.50;;;;;;5135274;27;20473;-70
2021/07/01 03:27:48;;;;;;;2.10;1.30;;;14.40;87.30;;;;;;5122201;27;20452;-69
2021/07/01 03:30:16;;;;;;;2.00;1.10;;;14.30;86.20;;;;;;5124173;27;20487;-69
2021/07/01 03:32:44;;;;;;;2.07;1.10;;;14.30;87.80;;;;;;5113493;28;20473;-70
2021/07/01 03:35:12;;;;;;;2.00;1.17;;;14.30;86.90;;;;;;5121486;27;20429;-69
2021/07/01 03:40:58;;;;;;;2.53;0.97;;;14.30;87.00;;;;;;5107640;27;20436;-68
2021/07/01 03:43:27;;;;;;;2.57;0.90;;;14.30;87.50;;;;;;5127402;27;20444;-69
2021/07/01 03:45:58;;;;;;;2.03;1.00;;;14.30;87.50;;;;;;5133512;27;20434;-68
2021/07/01 03:48:28;;;;;;;2.00;1.20;;;14.30;87.60;;;;;;5119217;27;20482;-69
2021/07/01 03:51:06;;;;;;;3.67;1.77;;;14.30;87.90;;;;;;5116873;27;20459;-69
2021/07/01 03:53:34;;;;;;;2.70;1.50;;;14.30;87.40;;;;;;5133308;27;20477;-69
2021/07/01 03:56:01;;;;;;;2.30;1.37;;;14.30;87.60;;;;;;5124755;27;20427;-68
2021/07/01 03:58:28;;;;;;;3.23;1.23;;;14.40;88.60;;;;;;5112748;28;20441;-69
2021/07/01 04:01:02;;;;;;;4.37;1.83;;;14.40;88.20;;;;;;5119741;27;20429;-68
2021/07/01 04:03:31;;;;;;;1.77;1.00;;;14.40;88.80;;;;;;5127350;27;20536;-69
2021/07/01 04:06:03;;;;;;;1.90;1.00;;;14.30;87.80;;;;;;5113100;28;20434;-69
2021/07/01 04:08:32;;;;;;;2.27;1.40;;;14.30;87.60;;;;;;5118200;28;20494;-68
2021/07/01 04:11:09;;;;;;;2.00;1.10;;;14.30;89.50;;;;;;5133702;28;20434;-68
2021/07/01 04:13:40;;;;;;;2.33;1.30;;;14.40;90.00;;;;;;5122253;28;20534;-67
2021/07/01 04:16:09;;;;;;;2.67;1.30;;;14.40;89.40;;;;;;5112994;28;20438;-68
2021/07/01 04:18:40;;;;;;;2.63;1.50;;;14.40;88.50;;;;;;5122738;28;20441;-69
2021/07/01 04:21:12;;;;;;;1.70;0.90;;;14.40;89.30;;;;;;5133507;28;20458;-69
2021/07/01 04:23:39;;;;;;;2.47;1.30;;;14.50;90.10;;;;;;5122487;28;20921;-69
2021/07/01 04:26:11;;;;;;;2.40;0.80;;;14.50;89.20;;;;;;5113030;28;20430;-69
2021/07/01 04:28:43;;;;;;;2.27;1.23;;;14.50;89.80;;;;;;5122650;27;20999;-69
2021/07/01 04:31:12;;;;;;;1.83;0.90;;;14.50;90.30;;;;;;5136908;27;20429;-69
2021/07/01 04:33:41;;;;;;;5.87;1.10;;;14.50;89.10;;;;;;5127397;27;20477;-69
2021/07/01 04:36:08;;;;;;;2.10;1.20;;;14.50;89.50;;;;;;5129727;27;20445;-69
2021/07/01 04:38:39;;;;;;;2.20;1.50;;;14.50;89.80;;;;;;5128738;27;20491;-69
2021/07/01 04:41:06;;;;;;;4.47;1.10;;;14.60;90.30;;;;;;5117030;28;20438;-69
2021/07/01 04:43:36;;;;;;;2.50;1.13;;;14.60;89.50;;;;;;5122781;27;20429;-70
2021/07/01 04:46:14;;;;;;;2.20;1.57;;;14.60;88.10;;;;;;5137430;27;20440;-70
2021/07/01 04:48:43;;;;;;;2.10;0.93;;;14.50;88.60;;;;;;5119421;27;20445;-69
2021/07/01 04:51:18;;;;;;;1.93;1.40;;;14.50;88.10;;;;;;5116633;28;20487;-71
2021/07/01 04:53:45;;;;;;;2.13;1.10;;;14.50;88.80;;;;;;5134086;27;20469;-69
2021/07/01 04:56:12;;;;;;;1.80;1.00;;;14.50;89.10;;;;;;5134795;27;20433;-69
2021/07/01 04:58:46;;;;;;;2.20;1.33;;;14.60;89.50;;;;;;5137121;27;20486;-70
2021/07/01 05:01:18;;;;;;;2.50;1.40;;;14.60;89.60;;;;;;5096164;28;20443;-70
2021/07/01 05:03:47;;;;;;;2.10;1.27;;;14.70;90.30;;;;;;5095945;27;20435;-73
2021/07/01 05:06:17;;;;;;;2.40;1.13;;;14.70;90.50;;;;;;5116294;28;20440;-70
2021/07/01 05:08:50;;;;;;;1.70;1.00;;;14.80;90.70;;;;;;5108433;27;20437;-70
2021/07/01 05:11:18;;;;;;;2.40;1.40;;;14.80;90.60;;;;;;5115140;27;20430;-71
2021/07/01 05:13:47;;;;;;;3.10;1.13;;;14.90;90.10;;;;;;5113776;28;20505;-70
2021/07/01 05:16:17;;;;;;;1.90;1.27;;;14.90;89.60;;;;;;5117303;27;20469;-71
2021/07/01 05:18:48;;;;;;;2.03;1.40;;;15.00;89.90;;;;;;5110726;28;20445;-70
2021/07/01 05:21:16;;;;;;;4.40;1.27;;;15.00;89.60;;;;;;5117872;27;20450;-70
2021/07/01 05:23:44;;;;;;;2.40;1.17;;;15.00;88.80;;;;;;5114175;28;20434;-72
2021/07/01 05:26:11;;;;;;;2.10;1.30;;;15.00;89.10;;;;;;5110510;28;20838;-70
2021/07/01 05:28:48;;;;;;;1.77;1.07;;;15.00;88.60;;;;;;5114266;28;20453;-70
2021/07/01 05:31:23;;;;;;;2.30;1.10;;;15.00;87.50;;;;;;5117796;27;20494;-70
2021/07/01 05:33:53;;;;;;;1.80;0.80;;;15.00;87.80;;;;;;5114155;28;20522;-70
2021/07/01 05:36:33;;;;;;;3.30;1.13;;;15.10;88.30;;;;;;5114379;27;20458;-70
2021/07/01 05:39:00;;;;;;;1.87;1.00;;;15.10;88.20;;;;;;5114373;27;20933;-70
2021/07/01 05:41:31;;;;;;;2.80;1.90;;;15.10;86.90;;;;;;5114118;27;20846;-70
2021/07/01 05:44:03;;;;;;;2.40;1.40;;;15.10;86.60;;;;;;5113482;28;20510;-74
2021/07/01 05:46:34;;;;;;;4.63;0.90;;;15.20;86.00;;;;;;5111257;28;20434;-69
2021/07/01 05:49:06;;;;;;;1.83;0.83;;;15.20;85.70;;;;;;5112437;27;20561;-70
2021/07/01 05:51:35;;;;;;;2.00;1.20;;;15.30;86.90;;;;;;5111394;27;20418;-70
2021/07/01 05:54:08;;;;;;;1.90;1.20;;;15.30;87.20;;;;;;5114088;27;20577;-70
2021/07/01 05:56:37;;;;;;;1.90;1.00;;;15.30;86.00;;;;;;5113458;28;20463;-71
2021/07/01 05:59:06;;;;;;;1.80;1.00;;;15.30;87.50;;;;;;5114953;27;20479;-71
2021/07/01 06:01:33;;;;;;;1.53;0.83;;;15.30;87.80;;;;;;5115878;27;20466;-70
2021/07/01 06:04:06;;;;;;;2.10;1.07;;;15.40;87.20;;;;;;5113605;28;20488;-70
2021/07/01 06:06:39;;;;;;;2.03;1.00;;;15.40;87.80;;;;;;5109999;28;20484;-70
2021/07/01 06:09:06;;;;;;;3.10;1.43;;;15.40;86.70;;;;;;5116255;27;20507;-70
2021/07/01 06:11:34;;;;;;;2.13;1.37;;;15.50;86.90;;;;;;5113223;28;20499;-71
2021/07/01 06:14:04;;;;;;;3.07;1.23;;;15.40;84.50;;;;;;5113085;28;20476;-69
2021/07/01 06:16:33;;;;;;;2.30;1.20;;;15.40;84.80;;;;;;5115716;27;20442;-70
2021/07/01 06:19:03;;;;;;;3.07;1.23;;;15.40;85.40;;;;;;5113248;28;20438;-70
2021/07/01 06:21:31;;;;;;;2.97;1.40;;;15.50;86.30;;;;;;5109397;28;20435;-70
2021/07/01 06:23:59;;;;;;;2.87;1.20;;;15.50;87.70;;;;;;5113418;28;20430;-70
2021/07/01 06:26:28;;;;;;;1.93;1.20;;;15.50;86.60;;;;;;5113261;28;20803;-69
2021/07/01 06:28:56;;;;;;;4.20;1.90;;;15.60;86.70;;;;;;5116974;27;20445;-72
2021/07/01 06:31:24;;;;;;;2.10;1.30;;;15.60;86.40;;;;;;5112467;27;20434;-70
2021/07/01 06:33:51;;;;;;;2.87;1.30;;;15.60;87.40;;;;;;5111942;27;20505;-70
2021/07/01 06:36:20;;;;;;;3.00;1.60;;;15.70;87.80;;;;;;5112488;27;20935;-70
2021/07/01 06:38:54;;;;;;;2.47;1.53;;;15.70;86.70;;;;;;5113461;27;20811;-70
2021/07/01 06:41:22;;;;;;;2.77;1.30;;;15.80;88.10;;;;;;5113721;27;20434;-70
2021/07/01 06:43:54;;;;;;;2.20;1.30;;;15.80;87.70;;;;;;5112478;28;20434;-70
2021/07/01 06:46:22;;;;;;;2.63;1.60;;;15.80;86.20;;;;;;5113336;27;20487;-70
2021/07/01 06:48:52;;;;;;;3.57;1.13;;;15.90;86.70;;;;;;5113660;27;20842;-70
2021/07/01 06:51:19;;;;;;;2.30;1.20;;;15.90;87.30;;;;;;5112515;28;20434;-70
2021/07/01 06:53:49;;;;;;;1.80;0.80;;;15.90;86.80;;;;;;5112456;28;20580;-70
2021/07/01 06:56:21;;;;;;;1.90;1.03;;;16.00;87.90;;;;;;5106203;27;20434;-70
2021/07/01 06:58:48;;;;;;;3.50;1.27;;;16.00;86.90;;;;;;5112042;28;20797;-70
2021/07/01 07:01:15;;;;;;;2.23;1.20;;;16.00;86.60;;;;;;5112155;28;20515;-70
2021/07/01 07:03:45;;;;;;;3.40;1.30;;;16.00;86.40;;;;;;5112692;28;20450;-70
2021/07/01 07:06:12;;;;;;;3.67;0.80;;;16.00;87.30;;;;;;5115493;27;20505;-71
2021/07/01 07:08:40;;;;;;;1.60;0.50;;;15.90;84.60;;;;;;5110970;27;20928;-70
2021/07/01 07:11:08;;;;;;;2.73;1.70;;;15.70;84.60;;;;;;5112167;27;20469;-70
2021/07/01 07:13:35;;;;;;;3.17;1.03;;;15.60;86.60;;;;;;5111887;28;20484;-70
2021/07/01 07:16:06;;;;;;;1.60;0.90;;;15.60;87.50;;;;;;5114893;27;20825;-71
2021/07/01 07:18:36;;;;;;;1.97;0.90;;;15.60;88.20;;;;;;5107680;28;20438;-70
2021/07/01 07:21:08;;;;;;;1.67;0.83;;;15.60;89.60;;;;;;5112500;27;20437;-69
2021/07/01 07:23:37;;;;;;;1.67;0.80;;;15.60;87.30;;;;;;5111611;28;20499;-69
2021/07/01 07:26:07;;;;;;;2.07;0.80;;;15.70;87.70;;;;;;5115467;27;20431;-69
2021/07/01 07:28:37;;;;;;;2.33;1.10;;;15.60;87.30;;;;;;5114799;27;20434;-69
2021/07/01 07:31:06;;;;;;;1.90;1.20;;;15.60;88.00;;;;;;5114686;27;21295;-69
2021/07/01 07:33:34;;;;;;;3.30;1.23;;;15.60;88.20;;;;;;5112046;28;20470;-69
2021/07/01 07:36:02;;;;;;;2.53;1.43;;;15.60;87.40;;;;;;5112306;27;20498;-69
2021/07/01 07:38:31;;;;;;;2.03;1.20;;;15.60;88.20;;;;;;5111783;28;20437;-70
2021/07/01 07:40:58;;;;;;;1.60;0.70;;;15.60;88.80;;;;;;5109530;27;20426;-69
2021/07/01 07:43:27;;;;;;;2.20;1.20;;;15.60;89.80;;;;;;5114910;27;20434;-69
2021/07/01 07:45:57;;;;;;;3.03;1.23;;;15.70;90.00;;;;;;5118719;27;20436;-69
2021/07/01 07:48:24;;;;;;;1.60;0.90;;;15.90;90.40;;;;;;5134365;27;20433;-70
2021/07/01 07:50:56;;;;;;;2.07;0.93;;;16.00;90.00;;;;;;5129020;27;20430;-69
2021/07/01 07:53:28;;;;;;;2.00;1.57;;;16.00;90.00;;;;;;5113276;28;20964;-69
2021/07/01 07:56:02;;;;;;;1.90;0.83;;;16.00;89.60;;;;;;5113700;28;20438;-70
2021/07/01 07:58:33;;;;;;;1.97;0.90;;;16.00;88.70;;;;;;5113413;28;20444;-69
2021/07/01 08:01:02;;;;;;;2.00;1.40;;;16.00;89.20;;;;;;5118242;27;20436;-69
2021/07/01 08:03:33;;;;;;;2.43;1.00;;;16.00;89.70;;;;;;5133718;27;20451;-69
2021/07/01 08:06:02;;;;;;;3.90;1.70;;;16.10;90.10;;;;;;5131728;27;20430;-68
2021/07/01 08:08:31;;;;;;;1.93;1.40;;;16.00;89.60;;;;;;5133680;27;20519;-69
2021/07/01 08:10:59;;;;;;;2.43;1.00;;;15.90;90.10;;;;;;5114749;28;20437;-70
2021/07/01 08:13:28;;;;;;;2.67;1.60;;;16.00;90.30;;;;;;5112975;28;20880;-70
2021/07/01 08:15:56;;;;;;;3.17;1.50;;;16.00;89.70;;;;;;5130510;28;20441;-69
2021/07/01 08:18:32;;;;;;;2.80;1.30;;;16.10;90.30;;;;;;5133725;28;20429;-69
2021/07/01 08:21:00;;;;;;;2.30;1.50;;;16.10;89.90;;;;;;5115567;28;20475;-69
2021/07/01 08:23:27;;;;;;;2.23;1.43;;;16.00;89.40;;;;;;5112900;28;20498;-69
2021/07/01 08:25:54;;;;;;;2.03;1.53;;;16.00;89.70;;;;;;5119843;28;20487;-69
2021/07/01 08:28:23;;;;;;;2.30;1.30;;;15.90;89.60;;;;;;5133810;28;20487;-70
2021/07/01 08:30:50;;;;;;;2.47;1.00;;;16.00;90.20;;;;;;5117045;28;20430;-69
2021/07/01 08:33:21;;;;;;;3.30;1.40;;;16.00;90.70;;;;;;5113636;28;20495;-69
2021/07/01 08:35:55;;;;;;;2.57;1.10;;;16.00;90.20;;;;;;5123660;28;20437;-69
2021/07/01 08:38:22;;;;;;;3.80;1.30;;;16.10;90.50;;;;;;5133316;28;20948;-69
2021/07/01 08:40:51;;;;;;;3.13;1.30;;;16.10;90.00;;;;;;5131869;28;20520;-70
2021/07/01 08:43:22;;;;;;;1.93;1.13;;;16.10;89.60;;;;;;5133283;28;20437;-70
2021/07/01 08:46:11;;;;;;;3.10;1.20;;;16.20;90.10;;;;;;5120312;28;20529;-69
2021/07/01 08:48:45;;;;;;;2.33;1.30;;;16.30;90.30;;;;;;5113046;28;20781;-69
2021/07/01 08:51:20;;;;;;;2.47;1.50;;;16.50;90.60;;;;;;5128384;28;20884;-70
2021/07/01 08:54:23;;;;;;;8.67;1.77;;;16.60;90.30;;;;;;5133319;28;20472;-69
2021/07/01 08:56:52;;;;;;;2.43;1.37;;;16.70;90.40;;;;;;5092332;28;20434;-70
2021/07/01 08:59:22;;;;;;;3.03;1.50;;;16.70;90.30;;;;;;5106482;28;20432;-70
2021/07/01 09:01:56;;;;;;;2.60;1.93;;;16.70;90.00;;;;;;5133382;28;20469;-70
2021/07/01 09:04:26;;;;;;;2.73;1.70;;;16.70;89.90;;;;;;5120893;28;20521;-69
2021/07/01 09:07:03;;;;;;;3.23;1.30;;;16.80;90.60;;;;;;5113963;28;20429;-69
2021/07/01 09:09:34;;;;;;;3.83;1.27;;;16.90;90.90;;;;;;5127396;28;20448;-69
2021/07/01 09:12:04;;;;;;;2.33;1.40;;;16.90;89.80;;;;;;5128558;28;20431;-69
2021/07/01 09:14:32;;;;;;;2.40;1.60;;;16.80;89.60;;;;;;5113460;28;20542;-70
2021/07/01 09:17:03;;;;;;;4.30;1.60;;;16.80;90.50;;;;;;5115847;28;20434;-69
2021/07/01 09:19:30;;;;;;;2.40;1.47;;;16.80;89.70;;;;;;5135006;27;20433;-70
2021/07/01 09:22:00;;;;;;;1.90;0.93;;;16.90;90.40;;;;;;5134826;27;20429;-71
2021/07/01 09:24:36;;;;;;;3.60;1.53;;;16.90;89.40;;;;;;5116588;27;20434;-69
2021/07/01 09:27:08;;;;;;;2.80;1.53;;;16.90;90.20;;;;;;5117188;27;20429;-69
2021/07/01 09:29:37;;;;;;;2.00;1.07;;;17.00;89.70;;;;;;5116340;28;20528;-69
2021/07/01 09:32:05;;;;;;;2.67;1.47;;;17.00;88.90;;;;;;5117088;27;20430;-69
2021/07/01 09:34:34;;;;;;;2.50;1.57;;;17.10;90.00;;;;;;5115847;28;20531;-69
2021/07/01 09:37:02;;;;;;;2.50;1.60;;;17.20;89.50;;;;;;5116858;27;20525;-69
2021/07/01 09:39:32;;;;;;;2.17;1.17;;;17.20;89.30;;;;;;5127161;27;20434;-69
2021/07/01 09:42:00;;;;;;;2.40;1.60;;;17.30;88.40;;;;;;5116326;27;20453;-68
2021/07/01 09:44:29;;;;;;;2.30;1.50;;;17.40;88.60;;;;;;5115301;28;20477;-69
2021/07/01 09:46:58;;;;;;;2.07;1.00;;;17.30;86.40;;;;;;5115831;28;20849;-68
2021/07/01 09:49:31;;;;;;;2.73;1.80;;;17.20;86.20;;;;;;5115513;28;20434;-69
2021/07/01 09:52:03;;;;;;;2.60;1.40;;;17.10;86.80;;;;;;5115933;28;20461;-68
2021/07/01 09:54:34;;;;;;;3.30;1.80;;;17.10;88.00;;;;;;5115373;28;20473;-70
2021/07/01 09:57:12;;;;;;;2.37;1.30;;;17.30;88.40;;;;;;5115734;27;20466;-68
2021/07/01 09:59:44;;;;;;;2.53;1.20;;;17.40;86.70;;;;;;5124856;27;20433;-68
2021/07/01 10:02:16;;;;;;;2.10;1.30;;;17.40;87.30;;;;;;5115231;28;20520;-69
2021/07/01 10:04:46;;;;;;;3.10;1.70;;;17.40;86.30;;;;;;5127246;27;20440;-68
2021/07/01 10:07:19;;;;;;;2.57;1.40;;;17.40;86.40;;;;;;5121524;27;20538;-68
2021/07/01 10:09:53;;;;;;;2.57;1.43;;;17.40;87.40;;;;;;5115412;28;20515;-69
2021/07/01 10:12:23;;;;;;;2.83;1.63;;;17.50;87.80;;;;;;5120067;27;20429;-68
2021/07/01 10:14:55;;;;;;;2.40;1.80;;;17.70;90.00;;;;;;5114817;28;20972;-69
2021/07/01 10:17:23;;;;;;;2.00;1.30;;;17.80;89.70;;;;;;5126296;27;20919;-69
2021/07/01 10:20:02;;;;;;;2.30;1.20;;;17.90;90.10;;;;;;5135786;27;20437;-69
2021/07/01 10:22:36;;;;;;;3.47;1.40;;;17.90;89.50;;;;;;5118969;27;20487;-69
2021/07/01 10:25:10;;;;;;;3.30;1.40;;;17.90;90.00;;;;;;5114892;28;20486;-68
2021/07/01 10:27:41;;;;;;;5.20;1.50;;;18.00;90.10;;;;;;5113475;28;20434;-72
2021/07/01 10:30:17;;;;;;;2.60;1.63;;;18.10;89.20;;;;;;5114839;28;20430;-70
2021/07/01 10:32:46;;;;;;;3.37;1.50;;;18.10;89.40;;;;;;5115296;28;20438;-69
2021/07/01 10:35:27;;;;;;;3.83;1.97;;;18.20;88.90;;;;;;5115165;28;21082;-69
2021/07/01 10:38:16;;;;;;;3.60;1.10;;;18.20;89.30;;;;;;5133525;27;20430;-70
2021/07/01 10:40:47;;;;;;;1.80;0.93;;;18.30;89.80;;;;;;5130713;27;20513;-69
2021/07/01 10:43:20;;;;;;;3.03;1.73;;;18.50;89.50;;;;;;5108050;28;20440;-69
2021/07/01 10:45:57;;;;;;;2.83;1.40;;;18.60;88.50;;;;;;5118346;27;20448;-70
2021/07/01 10:48:25;;;;;;;2.20;1.40;;;18.60;88.00;;;;;;5135133;27;20508;-70
2021/07/01 10:50:54;;;;;;;2.90;1.93;;;18.70;85.00;;;;;;5135048;27;20429;-69
2021/07/01 10:53:30;;;;;;;2.27;1.40;;;18.60;81.40;;;;;;5134981;27;20441;-70
2021/07/01 10:56:02;;;;;;;7.83;1.20;;;18.50;81.90;;;;;;5124744;27;20564;-70
2021/07/01 10:58:30;;;;;;;2.97;1.37;;;18.40;79.50;;;;;;5127220;27;20457;-70
2021/07/01 11:01:00;;;;;;;2.60;1.10;;;18.30;78.20;;;;;;5114881;28;20944;-69
2021/07/01 11:03:29;;;;;;;2.80;1.73;;;18.30;80.00;;;;;;5125512;27;20445;-70
2021/07/01 11:05:57;;;;;;;4.47;1.97;;;18.30;81.30;;;;;;5113774;28;20429;-69
2021/07/01 11:08:26;;;;;;;3.50;2.10;;;18.20;81.40;;;;;;5113476;28;20440;-70
2021/07/01 11:10:57;;;;;;;2.80;1.57;;;18.10;81.10;;;;;;5113649;28;20465;-69
2021/07/01 11:13:28;;;;;;;2.50;1.20;;;18.00;81.30;;;;;;5113511;28;20550;-69
2021/07/01 11:16:03;;;;;;;2.47;1.33;;;17.90;82.40;;;;;;5113660;28;20478;-70
2021/07/01 11:18:39;;;;;;;2.60;1.37;;;17.90;82.90;;;;;;5114120;27;20438;-70
2021/07/01 11:21:15;;;;;;;2.23;1.07;;;17.90;83.70;;;;;;5113535;28;20444;-70
2021/07/01 11:23:44;;;;;;;2.40;1.40;;;17.90;84.60;;;;;;5118573;27;20486;-70
2021/07/01 11:26:26;;;;;;;2.17;1.37;;;18.00;85.00;;;;;;5113736;28;20928;-70
2021/07/01 11:28:55;;;;;;;2.90;1.37;;;18.00;84.50;;;;;;5113457;28;20426;-70
2021/07/01 11:31:37;;;;;;;2.50;1.27;;;18.00;83.80;;;;;;5113567;28;20498;-72
2021/07/01 11:34:05;;;;;;;3.10;1.30;;;18.10;84.60;;;;;;5114200;28;20492;-70
2021/07/01 11:36:33;;;;;;;2.37;1.63;;;18.10;81.80;;;;;;5126259;27;20469;-69
2021/07/01 11:39:09;;;;;;;2.33;1.50;;;18.10;82.50;;;;;;5133760;27;20437;-70
2021/07/01 11:41:36;;;;;;;2.23;1.30;;;18.10;83.70;;;;;;5120850;27;20495;-69
2021/07/01 11:44:06;;;;;;;2.50;1.10;;;18.20;84.30;;;;;;5131331;27;20493;-70
2021/07/01 11:46:33;;;;;;;4.80;2.30;;;18.30;83.50;;;;;;5123089;27;20437;-69
2021/07/01 11:49:11;;;;;;;1.80;0.90;;;18.40;81.60;;;;;;5113408;27;20465;-69
2021/07/01 11:51:42;;;;;;;3.10;1.50;;;18.60;81.60;;;;;;5133522;27;20461;-69
2021/07/01 11:54:10;;;;;;;5.13;3.83;;;18.80;82.60;;;;;;5118681;27;20446;-70
2021/07/01 11:56:56;;;;;;;4.30;2.73;;;19.10;78.70;;;;;;5113323;28;20493;-70
2021/07/01 11:59:26;;;;;;;2.20;1.27;;;19.30;79.50;;;;;;5096238;28;20440;-70
2021/07/01 12:01:54;;;;;;;2.13;1.43;;;19.70;78.30;;;;;;5092647;28;20435;-70
2021/07/01 12:04:26;;;;;;;3.60;1.77;;;20.10;79.50;;;;;;5113895;27;20514;-70
2021/07/01 12:07:00;;;;;;;3.60;1.40;;;20.40;77.20;;;;;;5113461;28;20426;-70
2021/07/01 12:09:27;;;;;;;2.10;1.07;;;20.80;74.10;;;;;;5132615;27;20923;-69
2021/07/01 12:12:19;;;;;;;1.90;1.00;;;20.90;73.50;;;;;;5133467;28;20853;-70
2021/07/01 12:14:49;;;;;;;3.50;1.17;;;21.30;77.90;;;;;;5092935;28;20474;-70
2021/07/01 12:17:54;;;;;;;2.40;1.20;;;21.70;75.60;;;;;;5092540;28;20450;-70
2021/07/01 12:20:34;;;;;;;2.20;1.20;;;22.00;71.50;;;;;;5092717;28;20434;-71
2021/07/01 12:23:03;;;;;;;2.13;1.00;;;22.20;70.10;;;;;;5100757;28;20827;-69
2021/07/01 12:25:42;;;;;;;3.80;1.60;;;22.30;65.30;;;;;;5114109;28;20437;-71
2021/07/01 12:28:11;;;;;;;2.20;1.10;;;22.40;68.40;;;;;;5113055;28;20992;-71
2021/07/01 12:31:02;;;;;;;4.07;1.53;;;22.60;67.20;;;;;;5118819;28;20457;-70
2021/07/01 12:33:44;;;;;;;4.77;2.87;;;22.60;59.60;;;;;;5115047;28;20487;-70
2021/07/01 12:36:26;;;;;;;3.33;1.50;;;22.60;63.60;;;;;;5122667;28;20982;-71
2021/07/01 12:39:17;;;;;;;3.83;1.70;;;22.80;63.40;;;;;;5133359;28;20520;-72
2021/07/01 12:41:45;;;;;;;2.70;1.60;;;23.00;63.00;;;;;;5118924;28;20433;-70
2021/07/01 12:44:17;;;;;;;1.90;1.27;;;23.00;60.90;;;;;;5092383;28;20431;-70
2021/07/01 12:46:56;;;;;;;3.70;1.57;;;22.90;58.40;;;;;;5107487;28;20514;-70
2021/07/01 12:50:00;;;;;;;4.23;1.63;;;22.90;59.60;;;;;;5112825;28;20438;-71
2021/07/01 12:52:36;;;;;;;2.53;1.70;;;22.90;58.30;;;;;;5129329;27;20469;-72
2021/07/01 12:55:06;;;;;;;2.43;1.40;;;23.10;59.60;;;;;;5127153;27;20492;-70
2021/07/01 12:57:33;;;;;;;3.17;1.90;;;23.10;60.40;;;;;;5137350;27;20444;-70
2021/07/01 13:00:00;;;;;;;3.20;1.50;;;23.20;59.20;;;;;;5128382;27;20426;-70
2021/07/01 13:02:31;;;;;;;2.00;1.10;;;23.00;58.00;;;;;;5137156;27;20566;-71
2021/07/01 13:05:00;;;;;;;2.37;1.60;;;22.60;58.80;;;;;;5122176;27;20438;-70
2021/07/01 13:07:29;;;;;;;2.87;1.77;;;22.30;59.70;;;;;;5117419;27;20434;-71
2021/07/01 13:10:01;;;;;;;2.97;1.83;;;22.10;60.90;;;;;;5116297;27;20430;-71
2021/07/01 13:12:36;;;;;;;2.80;1.87;;;21.90;60.90;;;;;;5117386;27;20433;-71
2021/07/01 13:15:07;;;;;;;2.97;2.00;;;21.70;61.80;;;;;;5116201;28;20512;-70
2021/07/01 13:17:40;;;;;;;4.20;2.10;;;21.40;62.40;;;;;;5119855;27;20465;-72
2021/07/01 13:20:11;;;;;;;2.70;1.90;;;21.20;65.50;;;;;;5136808;27;20930;-70
2021/07/01 13:22:52;;;;;;;4.60;2.00;;;21.10;66.90;;;;;;5132088;27;20484;-70